Time;durP1;ratioP1;P1;durP2;ratioP2;P2;SDS_P1;SDS_P2;PMS_P1;PMS_P2;Temp;Humidity;BMP_temperature;BMP_pressure;BME280_temperature;BME280_humidity;BME280_pressure;Samples;Min_cycle;Max_cycle;Signal;HPM_P1;HPM_P2
2022/04/13 00:02:19;;;;;;;6.00;2.50;;;;;;;3.93;77.58;98423.09;25137;1314;3026805;-70
2022/04/13 00:04:48;;;;;;;5.20;2.60;;;;;;;3.80;77.96;98420.79;25159;1314;3054988;-71
2022/04/13 00:07:18;;;;;;;5.10;2.90;;;;;;;3.60;78.88;98425.71;25138;1314;3028195;-70
2022/04/13 00:10:07;;;;;;;1.60;1.20;;;;;;;3.46;79.16;98424.48;25136;1314;3049870;-67
2022/04/13 00:12:40;;;;;;;5.20;1.40;;;;;;;3.42;80.13;98415.85;25116;1315;3026284;-68
2022/04/13 00:15:29;;;;;;;1.60;1.10;;;;;;;4.03;78.22;98409.23;25121;1317;3054010;-67
2022/04/13 00:17:59;;;;;;;2.10;1.50;;;;;;;3.95;77.74;98411.86;25117;1314;3026014;-72
2022/04/13 00:20:28;;;;;;;7.40;3.80;;;;;;;3.84;77.84;98410.16;25181;1314;3026180;-70
2022/04/13 00:22:58;;;;;;;13.30;8.10;;;;;;;3.63;78.60;98410.35;25682;1314;3026404;-69
2022/04/13 00:25:47;;;;;;;13.50;8.20;;;;;;;3.41;79.52;98405.48;25723;1315;3050857;-68
2022/04/13 00:28:16;;;;;;;8.20;4.40;;;;;;;3.32;80.09;98405.92;25805;1314;3026087;-68
2022/04/13 00:30:46;;;;;;;16.80;7.50;;;;;;;3.68;79.32;98407.83;25156;1315;3026455;-69
2022/04/13 00:33:15;;;;;;;8.80;4.90;;;;;;;3.91;78.27;98397.18;25139;1314;3027918;-68
2022/04/13 00:35:44;;;;;;;13.80;7.90;;;;;;;3.77;78.22;98399.27;25175;1314;3026908;-68
2022/04/13 00:38:13;;;;;;;15.00;9.10;;;;;;;3.59;78.87;98394.94;25067;1316;3051914;-74
2022/04/13 00:40:42;;;;;;;14.60;8.10;;;;;;;3.62;79.00;98389.42;25171;1314;3026480;-69
2022/04/13 00:43:11;;;;;;;11.20;5.40;;;;;;;3.54;79.34;98385.84;25141;1314;3058613;-67
2022/04/13 00:45:58;;;;;;;8.40;3.80;;;;;;;3.92;78.86;98389.16;25117;1314;3026901;-67
2022/04/13 00:48:40;;;;;;;8.90;4.30;;;;;;;4.20;77.33;98385.15;25126;1314;3053307;-69
2022/04/13 00:51:09;;;;;;;7.00;3.40;;;;;;;4.19;77.04;98376.88;25099;1317;3051416;-71
2022/04/13 00:53:50;;;;;;;5.00;3.00;;;;;;;3.81;77.74;98379.14;25144;1314;3070932;-68
2022/04/13 00:56:23;;;;;;;7.20;2.60;;;;;;;3.56;78.87;98372.08;25124;1314;3028892;-71
2022/04/13 00:58:54;;;;;;;3.30;2.10;;;;;;;3.61;78.54;98370.60;25145;1314;3026713;-68
2022/04/13 01:01:28;;;;;;;3.90;1.70;;;;;;;3.56;79.34;98374.15;25141;1315;3054804;-71
2022/04/13 01:03:58;;;;;;;3.80;1.90;;;;;;;3.84;78.56;98370.67;25164;1314;3026602;-68
2022/04/13 01:06:27;;;;;;;4.00;1.50;;;;;;;4.13;77.27;98357.91;25063;1316;3028933;-70
2022/04/13 01:08:57;;;;;;;3.70;2.00;;;;;;;3.89;77.82;98365.37;25133;1314;3054739;-70
2022/04/13 01:11:28;;;;;;;4.20;1.70;;;;;;;3.61;78.39;98366.45;25146;1315;3026476;-74
2022/04/13 01:13:58;;;;;;;2.80;1.80;;;;;;;3.33;79.70;98358.30;25104;1316;3026012;-70
2022/04/13 01:16:46;;;;;;;1.80;1.10;;;;;;;3.27;80.46;98353.59;25125;1314;3050611;-70
2022/04/13 01:19:18;;;;;;;3.00;1.20;;;;;;;3.90;79.19;98345.77;25133;1314;3026482;-70
2022/04/13 01:22:20;;;;;;;3.00;1.40;;;;;;;4.16;77.36;98350.00;25134;1314;3049798;-70
2022/04/13 01:24:50;;;;;;;4.80;3.00;;;;;;;3.78;77.93;98344.65;25143;1315;3053589;-69
2022/04/13 01:27:19;;;;;;;7.80;5.00;;;;;;;3.55;78.95;98337.30;25098;1314;3026359;-68
2022/04/13 01:29:54;;;;;;;8.90;6.00;;;;;;;3.34;79.59;98332.11;25153;1314;3050924;-70
2022/04/13 01:32:24;;;;;;;5.80;3.20;;;;;;;3.39;79.96;98342.43;25116;1315;3026672;-71
2022/04/13 01:34:54;;;;;;;4.50;1.80;;;;;;;3.91;78.36;98333.78;25106;1315;3026451;-69
2022/04/13 01:37:23;;;;;;;4.00;2.20;;;;;;;4.13;77.26;98335.23;25104;1317;3026617;-69
2022/04/13 01:39:54;;;;;;;7.00;3.50;;;;;;;3.94;77.69;98328.41;25148;1314;3055487;-68
2022/04/13 01:42:44;;;;;;;3.60;2.10;;;;;;;3.59;78.52;98321.88;25091;1314;3050564;-69
2022/04/13 01:45:19;;;;;;;4.50;3.00;;;;;;;3.39;79.28;98326.86;25090;1314;3026293;-70
2022/04/13 01:47:50;;;;;;;2.50;1.80;;;;;;;3.25;79.86;98319.07;25120;1314;3050817;-68
2022/04/13 01:50:19;;;;;;;2.30;1.20;;;;;;;3.43;80.23;98305.71;25085;1317;3026736;-68
2022/04/13 01:52:49;;;;;;;1.40;0.90;;;;;;;3.75;78.63;98308.07;25099;1314;3027196;-68
2022/04/13 01:55:18;;;;;;;2.70;1.30;;;;;;;3.87;77.63;98310.21;25110;1314;3026587;-69
2022/04/13 01:57:48;;;;;;;3.00;1.90;;;;;;;3.54;78.80;98307.23;25158;1314;3053414;-70
2022/04/13 02:00:31;;;;;;;3.90;1.80;;;;;;;3.29;79.79;98295.64;25095;1314;3051812;-72
2022/04/13 02:03:00;;;;;;;1.60;0.90;;;;;;;3.09;80.53;98305.48;25156;1314;3026892;-70
2022/04/13 02:05:29;;;;;;;1.80;0.90;;;;;;;3.57;80.16;98295.30;25126;1314;3050695;-68
2022/04/13 02:07:58;;;;;;;2.10;1.10;;;;;;;3.92;78.17;98294.20;25133;1317;3027377;-68
2022/04/13 02:10:47;;;;;;;3.50;1.50;;;;;;;3.66;78.44;98292.77;25102;1314;3048923;-68
2022/04/13 02:13:16;;;;;;;2.20;1.50;;;;;;;3.59;78.84;98283.95;25108;1317;3026842;-70
2022/04/13 02:15:45;;;;;;;2.50;1.40;;;;;;;3.25;80.34;98287.53;25096;1315;3071742;-70
2022/04/13 02:18:15;;;;;;;2.10;1.20;;;;;;;3.24;80.37;98283.44;25119;1314;3027469;-69
2022/04/13 02:20:47;;;;;;;1.50;1.10;;;;;;;3.58;79.68;98284.00;25119;1314;3053796;-69
2022/04/13 02:23:36;;;;;;;2.10;1.10;;;;;;;3.66;79.13;98283.23;25111;1314;3070560;-70
2022/04/13 02:26:05;;;;;;;1.20;0.90;;;;;;;3.65;79.20;98279.48;25117;1314;3026580;-69
2022/04/13 02:28:36;;;;;;;0.80;0.60;;;;;;;3.32;80.02;98280.45;25121;1314;3026783;-70
2022/04/13 02:31:06;;;;;;;2.40;0.80;;;;;;;3.20;80.26;98280.17;25105;1317;3026712;-68
2022/04/13 02:33:35;;;;;;;1.30;0.70;;;;;;;3.12;80.86;98303.23;25111;1314;3026266;-70
2022/04/13 02:36:06;;;;;;;1.00;0.60;;;;;;;3.62;80.10;98272.36;25099;1317;3026925;-68
2022/04/13 02:38:35;;;;;;;2.50;1.00;;;;;;;3.78;78.50;98266.86;25107;1317;3054600;-73
2022/04/13 02:41:04;;;;;;;2.20;1.10;;;;;;;3.73;78.81;98268.54;25098;1316;3027091;-69
2022/04/13 02:43:34;;;;;;;1.00;0.60;;;;;;;3.52;79.30;98278.06;25133;1317;3026235;-72
2022/04/13 02:46:03;;;;;;;2.20;1.20;;;;;;;3.29;79.93;98274.89;25102;1314;3026350;-69
2022/04/13 02:48:33;;;;;;;0.90;0.60;;;;;;;3.20;80.95;98269.11;25119;1314;3057853;-67
2022/04/13 02:51:02;;;;;;;1.90;0.70;;;;;;;3.55;80.11;98266.65;25108;1315;3029912;-68
2022/04/13 02:53:31;;;;;;;1.30;0.90;;;;;;;3.80;78.98;98273.03;25099;1314;3052289;-70
2022/04/13 02:56:01;;;;;;;2.30;1.00;;;;;;;3.75;78.85;98265.13;25081;1316;3026560;-71
2022/04/13 02:58:30;;;;;;;1.70;0.90;;;;;;;3.48;79.35;98258.89;25144;1314;3027917;-72
2022/04/13 03:00:59;;;;;;;2.80;1.10;;;;;;;3.08;80.69;98280.45;25113;1314;3026231;-73
2022/04/13 03:03:29;;;;;;;2.10;1.10;;;;;;;3.10;81.59;98260.24;25153;1314;3058628;-73
2022/04/13 03:05:58;;;;;;;4.20;1.40;;;;;;;3.68;79.96;98254.74;25084;1315;3026603;-72
2022/04/13 03:08:27;;;;;;;1.70;1.00;;;;;;;3.71;79.57;98262.92;25077;1317;3052157;-73
2022/04/13 03:11:17;;;;;;;2.00;0.90;;;;;;;3.54;79.45;98254.75;25103;1314;3056513;-74
2022/04/13 03:13:46;;;;;;;1.60;0.90;;;;;;;3.13;80.71;98269.80;25123;1314;3028081;-75
2022/04/13 03:16:35;;;;;;;2.10;0.70;;;;;;;3.02;81.24;98259.27;25065;1316;3053129;-70
2022/04/13 03:19:05;;;;;;;1.80;0.90;;;;;;;3.35;80.86;98256.42;25126;1317;3026843;-68
2022/04/13 03:21:54;;;;;;;1.50;0.70;;;;;;;3.72;79.09;98266.16;25089;1314;3068762;-72
2022/04/13 03:24:24;;;;;;;1.60;0.90;;;;;;;3.61;79.04;98248.52;25064;1315;3026697;-72
2022/04/13 03:26:53;;;;;;;1.60;0.80;;;;;;;3.27;80.03;98255.28;25105;1314;3026020;-74
2022/04/13 03:29:22;;;;;;;0.70;0.50;;;;;;;3.08;81.09;98257.59;25161;1314;3026890;-71
2022/04/13 03:31:51;;;;;;;1.50;0.60;;;;;;;2.96;81.88;98253.67;25102;1317;3048999;-73
2022/04/13 03:34:21;;;;;;;0.60;0.50;;;;;;;3.43;80.81;98257.91;25119;1314;3026107;-69
2022/04/13 03:36:50;;;;;;;1.20;0.70;;;;;;;3.69;79.73;98262.14;25123;1317;3027574;-74
2022/04/13 03:39:19;;;;;;;3.20;1.50;;;;;;;3.55;79.26;98242.27;25118;1314;3048351;-68
2022/04/13 03:41:50;;;;;;;2.60;1.50;;;;;;;3.38;79.98;98250.71;25122;1314;3027740;-73
2022/04/13 03:44:20;;;;;;;1.80;1.40;;;;;;;3.10;80.73;98237.96;25112;1318;3026857;-76
2022/04/13 03:46:50;;;;;;;2.20;0.90;;;;;;;2.96;81.78;98241.91;25170;1314;3027651;-74
2022/04/13 03:49:19;;;;;;;1.70;0.90;;;;;;;3.35;81.10;98231.84;25179;1314;3027561;-74
2022/04/13 03:51:49;;;;;;;2.60;0.80;;;;;;;3.56;80.18;98243.23;25137;1314;3027870;-74
2022/04/13 03:54:19;;;;;;;1.10;0.90;;;;;;;3.39;80.30;98239.45;24753;1316;3490027;-74
2022/04/13 03:56:48;;;;;;;3.80;1.70;;;;;;;3.24;80.85;98241.24;25156;1314;3026918;-74
2022/04/13 03:59:20;;;;;;;5.60;1.40;;;;;;;3.07;81.41;98251.57;25137;1314;3026146;-70
2022/04/13 04:01:52;;;;;;;1.40;1.20;;;;;;;3.26;81.89;98239.58;25115;1314;3053157;-73
2022/04/13 04:04:21;;;;;;;3.40;1.60;;;;;;;3.71;79.65;98252.36;25145;1314;3026477;-72
2022/04/13 04:07:04;;;;;;;4.00;2.10;;;;;;;3.40;80.36;98262.05;25155;1315;3051899;-75
2022/04/13 04:09:33;;;;;;;4.00;1.50;;;;;;;3.18;81.44;98237.18;25129;1315;3026388;-74
2022/04/13 04:12:02;;;;;;;2.30;1.50;;;;;;;3.19;80.77;98230.05;25177;1314;3027497;-75
2022/04/13 04:14:32;;;;;;;2.00;1.20;;;;;;;3.12;81.54;98233.14;25144;1314;3051027;-73
2022/04/13 04:17:01;;;;;;;2.20;0.90;;;;;;;3.73;79.91;98224.35;25121;1314;3026822;-76
2022/04/13 04:19:50;;;;;;;2.70;1.60;;;;;;;3.70;79.34;98225.55;25079;1316;3071441;-72
2022/04/13 04:22:39;;;;;;;7.70;2.70;;;;;;;3.52;79.92;98222.16;25093;1317;3051869;-75
2022/04/13 04:25:11;;;;;;;5.50;3.00;;;;;;;3.13;80.91;98253.02;25147;1314;3026572;-77
2022/04/13 04:27:41;;;;;;;2.00;1.20;;;;;;;3.17;81.20;98233.43;25127;1314;3026778;-77
2022/04/13 04:30:31;;;;;;;4.30;1.90;;;;;;;3.57;80.10;98221.38;25128;1315;3058903;-78
2022/04/13 04:33:04;;;;;;;2.70;1.50;;;;;;;3.65;80.09;98212.33;25138;1314;3026210;-75
2022/04/13 04:35:33;;;;;;;5.80;2.80;;;;;;;3.49;80.04;98201.02;25174;1314;3026603;-74
2022/04/13 04:38:02;;;;;;;8.00;3.20;;;;;;;3.30;80.70;98219.29;25169;1314;3029307;-76
2022/04/13 04:40:31;;;;;;;2.50;1.40;;;;;;;3.04;81.52;98204.34;25130;1315;3026804;-79
2022/04/13 04:43:00;;;;;;;3.60;1.80;;;;;;;3.23;81.96;98216.34;25742;1314;3054845;-77
2022/04/13 04:45:29;;;;;;;3.50;1.30;;;;;;;3.53;80.62;98205.31;25901;1314;3026279;-71
2022/04/13 04:48:04;;;;;;;3.10;1.10;;;;;;;3.58;79.93;98208.16;25846;1314;3049665;-70
2022/04/13 04:50:34;;;;;;;2.00;1.00;;;;;;;3.28;80.77;98202.09;25212;1314;3051984;-77
2022/04/13 04:53:04;;;;;;;2.00;0.90;;;;;;;3.14;81.41;98210.73;25115;1317;3026973;-73
2022/04/13 04:55:33;;;;;;;0.50;0.20;;;;;;;3.02;82.15;98208.40;25127;1315;3027449;-74
2022/04/13 04:58:03;;;;;;;0.80;0.50;;;;;;;3.56;80.81;98202.38;25123;1314;3054681;-73
2022/04/13 05:00:36;;;;;;;0.40;0.40;;;;;;;3.64;79.79;98203.36;25140;1314;3026216;-78
2022/04/13 05:03:05;;;;;;;1.90;0.80;;;;;;;3.49;80.17;98193.23;25116;1314;3027801;-74
2022/04/13 05:05:36;;;;;;;1.10;0.70;;;;;;;3.29;81.25;98186.65;25136;1315;3028232;-77
2022/04/13 05:08:07;;;;;;;1.30;0.60;;;;;;;3.22;81.39;98212.76;25156;1315;3054409;-76
2022/04/13 05:10:36;;;;;;;0.60;0.50;;;;;;;3.33;81.56;98192.81;25139;1315;3026728;-75
2022/04/13 05:13:08;;;;;;;1.80;0.70;;;;;;;3.72;79.97;98202.92;25151;1314;3028088;-73
2022/04/13 05:15:37;;;;;;;1.80;0.60;;;;;;;3.70;79.51;98212.39;25129;1316;3026382;-75
2022/04/13 05:18:07;;;;;;;1.30;0.80;;;;;;;3.34;81.08;98210.06;25102;1315;3027215;-75
2022/04/13 05:20:40;;;;;;;1.50;0.80;;;;;;;3.41;80.94;98211.14;25116;1314;3026606;-72
2022/04/13 05:23:09;;;;;;;1.20;0.50;;;;;;;3.26;81.57;98213.58;25109;1318;3026803;-72
2022/04/13 05:25:38;;;;;;;1.60;1.00;;;;;;;3.58;80.96;98206.59;25145;1314;3028138;-75
2022/04/13 05:28:28;;;;;;;2.90;1.10;;;;;;;3.67;79.75;98213.92;25101;1317;3057175;-73
2022/04/13 05:30:57;;;;;;;1.80;1.10;;;;;;;3.45;80.33;98208.13;25099;1316;3026659;-74
2022/04/13 05:33:27;;;;;;;3.10;1.10;;;;;;;3.30;81.50;98210.61;25103;1317;3026766;-73
2022/04/13 05:35:56;;;;;;;2.60;0.90;;;;;;;3.24;81.42;98206.10;25118;1316;3027321;-75
2022/04/13 05:38:27;;;;;;;3.00;1.20;;;;;;;3.45;81.42;98207.09;25126;1314;3026022;-72
2022/04/13 05:40:56;;;;;;;4.80;1.40;;;;;;;3.61;80.82;98202.28;25159;1314;3026940;-74
2022/04/13 05:43:26;;;;;;;2.00;1.40;;;;;;;3.75;80.23;98205.90;25117;1314;3026322;-76
2022/04/13 05:45:55;;;;;;;4.70;2.10;;;;;;;3.55;80.66;98200.02;25103;1317;3070485;-70
2022/04/13 05:48:25;;;;;;;12.20;6.50;;;;;;;3.45;80.75;98195.30;25101;1317;3026620;-73
2022/04/13 05:51:06;;;;;;;9.50;4.60;;;;;;;3.27;81.72;98209.55;25159;1317;3055349;-73
2022/04/13 05:53:36;;;;;;;4.60;3.40;;;;;;;3.82;80.48;98193.02;25104;1317;3027168;-73
2022/04/13 05:56:05;;;;;;;8.50;3.80;;;;;;;3.94;79.49;98201.79;25116;1317;3048183;-75
2022/04/13 05:58:34;;;;;;;9.40;4.10;;;;;;;3.61;80.45;98197.09;25137;1317;3026932;-74
2022/04/13 06:01:03;;;;;;;9.80;5.50;;;;;;;3.57;80.70;98201.28;25168;1317;3026736;-75
2022/04/13 06:03:33;;;;;;;7.20;3.30;;;;;;;3.23;81.93;98191.98;25101;1316;3026548;-73
2022/04/13 06:06:03;;;;;;;4.80;2.60;;;;;;;3.36;82.32;98183.67;25136;1314;3026569;-75
2022/04/13 06:08:34;;;;;;;4.50;2.30;;;;;;;3.87;80.83;98174.41;25147;1314;3027536;-72
2022/04/13 06:11:23;;;;;;;4.40;2.20;;;;;;;3.86;79.75;98190.26;25086;1314;3051647;-74
2022/04/13 06:13:52;;;;;;;4.10;2.00;;;;;;;3.66;80.53;98172.91;25124;1314;3025969;-77
2022/04/13 06:16:28;;;;;;;6.60;2.50;;;;;;;3.55;80.84;98176.42;25123;1319;3054621;-75
2022/04/13 06:18:58;;;;;;;6.40;3.00;;;;;;;3.48;81.70;98160.38;25124;1315;3026599;-74
2022/04/13 06:21:27;;;;;;;11.50;3.60;;;;;;;4.12;79.69;98157.84;25108;1314;3026856;-77
2022/04/13 06:23:57;;;;;;;13.70;5.40;;;;;;;4.15;79.07;98140.34;25110;1319;3051925;-75
2022/04/13 06:26:26;;;;;;;12.50;4.90;;;;;;;3.93;79.60;98155.73;25139;1314;3028471;-75
2022/04/13 06:28:55;;;;;;;6.30;3.00;;;;;;;3.66;80.50;98145.52;25098;1315;3053642;-75
2022/04/13 06:31:24;;;;;;;4.90;1.90;;;;;;;3.39;81.36;98159.45;25145;1314;3026332;-75
2022/04/13 06:33:53;;;;;;;3.80;2.30;;;;;;;3.50;81.75;98175.54;25127;1314;3055769;-74
2022/04/13 06:36:22;;;;;;;2.60;1.40;;;;;;;4.00;80.09;98151.39;25136;1316;3026082;-76
2022/04/13 06:38:51;;;;;;;6.50;2.30;;;;;;;3.90;80.06;98157.49;25113;1314;3052934;-76
2022/04/13 06:41:21;;;;;;;3.40;1.50;;;;;;;3.80;80.36;98163.17;25156;1317;3026476;-74
2022/04/13 06:43:52;;;;;;;3.30;1.20;;;;;;;3.55;81.18;98174.91;25117;1314;3052645;-75
2022/04/13 06:46:21;;;;;;;2.40;0.90;;;;;;;3.46;82.09;98167.92;25114;1316;3029965;-78
2022/04/13 06:48:50;;;;;;;1.30;0.70;;;;;;;3.92;81.02;98189.58;25117;1314;3026184;-75
2022/04/13 06:51:19;;;;;;;3.90;0.90;;;;;;;3.94;80.63;98155.17;25111;1314;3054107;-77
2022/04/13 06:53:48;;;;;;;1.60;0.90;;;;;;;4.00;80.24;98143.73;25135;1317;3026635;-74
2022/04/13 06:56:18;;;;;;;2.70;1.40;;;;;;;3.75;80.94;98157.74;25088;1316;3049489;-76
2022/04/13 06:58:48;;;;;;;1.90;1.00;;;;;;;3.60;81.76;98169.77;25151;1314;3026731;-75
2022/04/13 07:01:17;;;;;;;1.30;0.70;;;;;;;3.84;82.18;98165.71;25126;1315;3026291;-74
2022/04/13 07:03:46;;;;;;;1.20;0.70;;;;;;;4.04;81.30;98149.95;25091;1314;3026314;-76
2022/04/13 07:06:15;;;;;;;1.80;0.80;;;;;;;3.94;81.45;98149.45;25099;1317;3051230;-76
2022/04/13 07:08:45;;;;;;;1.50;0.90;;;;;;;3.74;81.87;98162.45;25113;1314;3026880;-76
2022/04/13 07:11:17;;;;;;;1.20;0.80;;;;;;;3.46;82.98;98147.83;25169;1314;3026564;-74
2022/04/13 07:13:46;;;;;;;1.50;0.60;;;;;;;3.61;83.11;98162.79;25158;1315;3026814;-74
2022/04/13 07:16:35;;;;;;;1.90;1.00;;;;;;;3.80;82.58;98130.79;25135;1318;3055706;-75
2022/04/13 07:19:05;;;;;;;1.50;0.90;;;;;;;3.77;82.76;98149.69;25204;1316;3026779;-75
2022/04/13 07:21:34;;;;;;;1.60;1.00;;;;;;;3.60;83.04;98130.14;25152;1314;3049883;-74
2022/04/13 07:24:03;;;;;;;1.80;1.10;;;;;;;3.53;83.38;98128.61;25085;1318;3026716;-74
2022/04/13 07:26:32;;;;;;;1.80;1.00;;;;;;;3.79;83.46;98159.27;25187;1316;3055534;-77
2022/04/13 07:29:02;;;;;;;3.90;1.70;;;;;;;4.05;82.07;98135.88;25129;1315;3026347;-75
2022/04/13 07:31:31;;;;;;;3.60;1.40;;;;;;;3.93;82.31;98140.30;25256;1313;3027265;-78
2022/04/13 07:34:02;;;;;;;2.30;1.40;;;;;;;3.73;82.84;98170.66;25239;1314;3026332;-75
2022/04/13 07:36:34;;;;;;;2.70;1.30;;;;;;;3.50;83.92;98152.67;25097;1314;3054257;-77
2022/04/13 07:39:15;;;;;;;1.90;1.30;;;;;;;3.82;83.67;98161.55;25133;1319;3052740;-75
2022/04/13 07:41:47;;;;;;;3.70;1.30;;;;;;;4.07;82.35;98155.50;25144;1316;3026334;-78
2022/04/13 07:44:16;;;;;;;2.80;1.30;;;;;;;3.90;82.49;98152.98;25094;1314;3026463;-77
2022/04/13 07:47:05;;;;;;;2.30;1.60;;;;;;;3.77;83.06;98136.14;25093;1316;3053203;-73
2022/04/13 07:49:34;;;;;;;1.90;1.00;;;;;;;3.71;83.77;98151.04;25164;1315;3027437;-77
2022/04/13 07:52:05;;;;;;;1.20;0.90;;;;;;;4.10;82.68;98139.22;25170;1315;3026970;-78
2022/04/13 07:54:34;;;;;;;2.50;1.20;;;;;;;4.33;81.44;98134.45;25158;1315;3029988;-77
2022/04/13 07:57:04;;;;;;;2.60;2.10;;;;;;;4.14;81.79;98153.92;25122;1315;3026766;-75
2022/04/13 07:59:33;;;;;;;4.60;1.20;;;;;;;3.91;83.02;98174.91;25137;1315;3026807;-72
2022/04/13 08:02:03;;;;;;;1.20;0.90;;;;;;;3.86;83.82;98167.52;25118;1314;3050577;-77
2022/04/13 08:04:34;;;;;;;1.60;1.10;;;;;;;4.22;82.57;98152.92;25142;1314;3028293;-76
2022/04/13 08:07:03;;;;;;;2.50;1.20;;;;;;;4.23;82.38;98152.03;25060;1315;3026506;-77
2022/04/13 08:09:34;;;;;;;1.90;1.50;;;;;;;4.17;82.60;98143.84;25179;1314;3027636;-77
2022/04/13 08:12:06;;;;;;;1.90;1.10;;;;;;;4.08;82.85;98153.35;25114;1315;3027800;-76
2022/04/13 08:14:35;;;;;;;5.20;1.40;;;;;;;4.07;83.63;98150.29;25126;1314;3026293;-80
2022/04/13 08:17:24;;;;;;;5.30;1.80;;;;;;;4.47;82.42;98151.91;25137;1317;3054343;-76
2022/04/13 08:19:53;;;;;;;5.00;1.40;;;;;;;4.19;82.80;98164.17;25226;1315;3026374;-78
2022/04/13 08:22:23;;;;;;;5.60;1.60;;;;;;;4.13;83.65;98150.14;25104;1315;3026831;-79
2022/04/13 08:24:52;;;;;;;3.00;1.70;;;;;;;4.05;84.04;98154.03;25308;1314;3028549;-80
2022/04/13 08:27:21;;;;;;;7.00;1.60;;;;;;;4.06;84.55;98140.14;25151;1316;3027004;-78
2022/04/13 08:29:51;;;;;;;4.80;1.50;;;;;;;4.53;83.01;98139.05;25186;1314;3051452;-77
2022/04/13 08:32:40;;;;;;;4.50;2.20;;;;;;;4.53;82.48;98147.05;25266;1315;3053068;-77
2022/04/13 08:35:13;;;;;;;3.80;2.10;;;;;;;4.39;83.04;98165.32;25113;1317;3055003;-76
2022/04/13 08:37:43;;;;;;;2.10;1.30;;;;;;;4.17;84.22;98141.06;25208;1315;3026330;-76
2022/04/13 08:40:12;;;;;;;3.70;1.80;;;;;;;4.11;84.93;98151.98;25156;1314;3054776;-76
2022/04/13 08:42:49;;;;;;;3.80;2.00;;;;;;;4.53;83.98;98146.68;25102;1314;3028215;-76
2022/04/13 08:45:23;;;;;;;3.20;2.10;;;;;;;4.78;82.52;98148.71;25171;1314;3052664;-77
2022/04/13 08:48:02;;;;;;;4.90;2.10;;;;;;;4.65;83.02;98140.48;25155;1314;3052451;-78
2022/04/13 08:50:32;;;;;;;3.70;1.80;;;;;;;4.40;83.56;98138.08;25184;1315;3052082;-79
2022/04/13 08:53:02;;;;;;;4.60;2.00;;;;;;;4.33;84.90;98150.26;25232;1314;3028562;-77
2022/04/13 08:55:34;;;;;;;3.70;2.10;;;;;;;4.76;83.33;98148.87;25179;1314;3055471;-75
2022/04/13 08:58:33;;;;;;;5.40;2.60;;;;;;;4.95;82.80;98144.28;25127;1316;3026991;-78
2022/04/13 09:01:04;;;;;;;4.40;2.40;;;;;;;4.79;82.93;98147.47;25256;1314;3056829;-77
2022/04/13 09:03:46;;;;;;;6.30;2.80;;;;;;;4.53;84.48;98158.52;25203;1315;3026204;-79
2022/04/13 09:06:15;;;;;;;4.40;2.20;;;;;;;4.56;85.49;98151.34;25205;1314;3052983;-77
2022/04/13 09:08:52;;;;;;;3.60;2.20;;;;;;;5.03;84.12;98144.70;25145;1315;3028853;-77
2022/04/13 09:11:22;;;;;;;3.70;2.10;;;;;;;5.08;83.12;98143.87;25787;1314;3050765;-78
2022/04/13 09:13:56;;;;;;;3.10;2.00;;;;;;;4.86;83.82;98159.04;25894;1313;3026293;-79
2022/04/13 09:16:25;;;;;;;6.80;2.60;;;;;;;4.78;84.54;98143.20;25869;1316;3026009;-77
2022/04/13 09:18:55;;;;;;;5.00;2.40;;;;;;;5.01;84.91;98141.48;25288;1316;3027110;-78
2022/04/13 09:21:44;;;;;;;5.90;3.00;;;;;;;5.26;83.52;98145.80;25150;1316;3049251;-76
2022/04/13 09:24:14;;;;;;;5.50;3.10;;;;;;;5.36;83.22;98133.16;25199;1313;3026588;-76
2022/04/13 09:26:45;;;;;;;8.80;3.10;;;;;;;5.18;83.89;98137.06;25090;1315;3028071;-79
2022/04/13 09:29:14;;;;;;;4.70;3.10;;;;;;;5.08;84.98;98140.56;25145;1314;3026717;-78
2022/04/13 09:31:43;;;;;;;5.60;3.30;;;;;;;5.44;84.27;98148.31;25098;1316;3026617;-78
2022/04/13 09:34:13;;;;;;;5.20;3.20;;;;;;;5.47;84.06;98151.63;25067;1317;3055394;-77
2022/04/13 09:36:43;;;;;;;9.80;4.00;;;;;;;5.41;84.19;98151.27;25160;1315;3027539;-77
2022/04/13 09:39:12;;;;;;;9.40;4.50;;;;;;;5.22;84.97;98151.90;25179;1315;3029489;-75
2022/04/13 09:41:41;;;;;;;9.70;3.70;;;;;;;5.34;85.38;98155.57;25164;1314;3052581;-78
2022/04/13 09:44:13;;;;;;;9.60;4.00;;;;;;;5.75;84.13;98137.77;25318;1314;3026443;-76
2022/04/13 09:46:43;;;;;;;10.20;4.80;;;;;;;5.84;83.32;98147.60;25280;1315;3051488;-74
2022/04/13 09:49:13;;;;;;;9.10;5.10;;;;;;;5.62;84.00;98152.98;25195;1315;3029307;-76
2022/04/13 09:51:46;;;;;;;7.90;4.50;;;;;;;5.51;84.86;98140.61;25161;1315;3026280;-79
2022/04/13 09:54:17;;;;;;;11.30;6.30;;;;;;;5.81;84.49;98133.58;25197;1314;3050942;-76
2022/04/13 09:56:52;;;;;;;14.50;7.70;;;;;;;6.10;83.70;98145.02;25244;1314;3053041;-74
2022/04/13 09:59:29;;;;;;;15.10;7.60;;;;;;;6.17;82.83;98146.13;25185;1314;3026555;-77
2022/04/13 10:01:59;;;;;;;16.70;9.10;;;;;;;5.94;83.84;98153.12;25194;1314;3068725;-79
2022/04/13 10:04:30;;;;;;;16.90;7.20;;;;;;;6.07;83.98;98153.52;25211;1313;3029452;-77
2022/04/13 10:07:21;;;;;;;13.70;6.00;;;;;;;6.38;83.19;98156.61;25216;1316;3052470;-76
2022/04/13 10:09:51;;;;;;;14.60;6.70;;;;;;;6.25;83.47;98156.08;25262;1314;3026409;-79
2022/04/13 10:12:50;;;;;;;13.60;7.40;;;;;;;6.11;84.32;98173.29;25126;1317;3056572;-80
2022/04/13 10:15:19;;;;;;;13.10;6.30;;;;;;;6.11;84.73;98161.61;25238;1316;3050311;-77
2022/04/13 10:17:48;;;;;;;12.00;6.70;;;;;;;6.66;83.90;98164.06;25189;1317;3026092;-74
2022/04/13 10:20:17;;;;;;;15.00;8.70;;;;;;;6.79;83.16;98169.99;25043;1317;3057534;-77
2022/04/13 10:23:00;;;;;;;16.20;8.00;;;;;;;6.67;82.79;98167.96;25160;1314;3052555;-72
2022/04/13 10:25:29;;;;;;;12.60;6.50;;;;;;;6.49;83.81;98173.48;25219;1317;3026788;-73
2022/04/13 10:28:03;;;;;;;14.10;6.30;;;;;;;6.50;84.17;98184.56;25217;1317;3049552;-79
2022/04/13 10:30:36;;;;;;;13.30;7.50;;;;;;;7.08;82.11;98179.54;25170;1316;3028630;-77
2022/04/13 10:33:11;;;;;;;17.60;8.30;;;;;;;7.10;82.05;98178.59;25278;1317;3049105;-74
2022/04/13 10:35:44;;;;;;;15.70;8.80;;;;;;;6.93;82.48;98189.92;25315;1314;3026699;-76
2022/04/13 10:38:14;;;;;;;13.80;7.20;;;;;;;6.64;83.89;98193.23;25263;1314;3054111;-74
2022/04/13 10:40:43;;;;;;;21.50;10.20;;;;;;;6.82;84.20;98187.02;25207;1314;3028786;-79
2022/04/13 10:43:12;;;;;;;22.20;10.70;;;;;;;7.16;82.94;98178.83;25196;1314;3052028;-73
2022/04/13 10:45:45;;;;;;;25.10;13.00;;;;;;;7.15;82.71;98182.94;25203;1316;3027465;-75
2022/04/13 10:48:18;;;;;;;30.20;15.50;;;;;;;7.00;83.26;98184.26;25233;1314;3028803;-72
2022/04/13 10:50:54;;;;;;;27.50;14.40;;;;;;;7.02;83.98;98190.57;25228;1314;3049714;-75
2022/04/13 10:53:50;;;;;;;41.50;15.90;;;;;;;7.42;82.86;98188.77;25273;1314;3053977;-76
2022/04/13 10:56:20;;;;;;;32.00;17.10;;;;;;;7.65;81.84;98185.99;25191;1317;3051347;-77
2022/04/13 10:58:50;;;;;;;30.60;14.80;;;;;;;7.47;82.33;98192.98;25246;1317;3026571;-78
2022/04/13 11:01:20;;;;;;;25.00;11.90;;;;;;;7.26;83.59;98202.91;25179;1314;3026218;-74
2022/04/13 11:03:53;;;;;;;26.00;13.60;;;;;;;7.75;82.61;98192.42;25204;1317;3050511;-76
2022/04/13 11:06:22;;;;;;;46.70;19.80;;;;;;;7.94;81.48;98185.88;25094;1318;3026702;-75
2022/04/13 11:09:01;;;;;;;57.00;26.80;;;;;;;7.82;81.82;98193.69;25188;1314;3052627;-76
2022/04/13 11:11:35;;;;;;;47.40;23.20;;;;;;;7.66;82.93;98195.52;25149;1317;3053501;-77
2022/04/13 11:14:20;;;;;;;37.80;18.30;;;;;;;7.59;83.39;98203.33;25145;1314;3069748;-77
2022/04/13 11:17:05;;;;;;;32.50;17.40;;;;;;;8.14;82.33;98188.31;25153;1314;3048877;-76
2022/04/13 11:19:34;;;;;;;38.90;19.90;;;;;;;8.28;81.16;98201.67;25188;1314;3053227;-74
2022/04/13 11:22:03;;;;;;;59.40;28.20;;;;;;;7.96;82.27;98203.71;25179;1317;3026887;-74
2022/04/13 11:24:41;;;;;;;63.70;24.90;;;;;;;7.89;82.62;98203.33;25211;1314;3049813;-72
2022/04/13 11:27:10;;;;;;;35.00;19.50;;;;;;;7.80;83.66;98199.05;25203;1314;3055391;-74
2022/04/13 11:29:43;;;;;;;43.70;22.10;;;;;;;8.07;83.31;98203.15;25138;1314;3026477;-74
2022/04/13 11:32:16;;;;;;;41.70;22.50;;;;;;;8.15;82.67;98201.02;25161;1314;3028699;-73
2022/04/13 11:34:49;;;;;;;39.10;19.50;;;;;;;8.02;83.39;98203.45;25233;1314;3026295;-75
2022/04/13 11:37:19;;;;;;;32.80;16.00;;;;;;;7.89;84.04;98209.46;25132;1317;3027735;-70
2022/04/13 11:39:51;;;;;;;37.80;19.60;;;;;;;8.09;84.21;98202.48;25153;1314;3026359;-76
2022/04/13 11:42:26;;;;;;;50.80;26.40;;;;;;;8.45;82.59;98199.41;25162;1314;3026937;-75
2022/04/13 11:45:03;;;;;;;49.00;27.00;;;;;;;8.39;82.39;98195.61;25290;1317;3052051;-77
2022/04/13 11:47:59;;;;;;;47.20;23.30;;;;;;;8.24;83.17;98211.86;25186;1316;3053439;-71